Pennsylvania — WAPZ — position and weather

sailwx.info

Track history (hours):
 
Tides and Currents Weather Stations Pressure Air Temp Water Temp Dewpoint Dewpoint Depression Visibility Wind Speed Wind Dir Waves Ship Positions

Pennsylvania

Owner: Crowley Petroleum Services, Jacksonville, FL. More information available from US FCC via Universal Licensing System and Coast Guard Vessel Documentation Center.

Last reported at 2014-Oct-31 10:33 UTC. Time now 2014-Oct-31 10:50 UTC.
Position N 39°39' W 075°33'.

Length 183 m; draft 9.2 m.

Type: Tanker. MMSI: 338617000.

Date/timePositionNaut miles runAvg speedWind from/ knotsBaromVisibWave heightAir tempDewpointWater temp
2014-Oct-31 10:33N 39°39' W 075°33'1110.8
2014-Oct-31 09:33N 39°48' W 075°25'1 0.0
2014-Oct-30 08:14N 39°49' W 075°24'3 3.7
2014-Oct-30 07:33N 39°47' W 075°27'8 8.5
2014-Oct-30 06:33N 39°40' W 075°32'1111.0
2014-Oct-30 05:33N 39°29' W 075°34'1212.2
2014-Oct-30 04:33N 39°19' W 075°24'28 1.0
2014-Oct-29 00:05N 38°54' W 075°07'0 0.3
2014-Oct-28 23:32N 38°54' W 075°07'0 0.0
2014-Oct-28 22:29N 38°54' W 075°07'0 0.0
2014-Oct-28 21:29N 38°54' W 075°07'0 0.0
2014-Oct-28 10:20N 38°54' W 075°07'0 0.0
2014-Oct-28 09:32N 38°54' W 075°07'0 0.0
2014-Oct-28 08:32N 38°54' W 075°07'0 0.0
2014-Oct-28 07:29N 38°54' W 075°07'0 0.1
2014-Oct-28 06:32N 38°54' W 075°07'0 0.1
2014-Oct-28 05:29N 38°54' W 075°07'  
2014-Oct-23 09:33N 26°39' W 079°45'1918.6
2014-Oct-23 08:33N 26°20' W 079°46'1919.1
2014-Oct-23 07:33N 26°01' W 079°49'1919.1
2014-Oct-23 06:33N 25°42' W 079°52'  
Track history (hours):
 
Tides and Currents Weather Stations Pressure Air Temp Water Temp Dewpoint Dewpoint Depression Visibility Wind Speed Wind Dir Waves Ship Positions

Pennsylvania

Owner: Crowley Petroleum Services, Jacksonville, FL. More information available from US FCC via Universal Licensing System and Coast Guard Vessel Documentation Center.

Last reported at 2014-Oct-31 10:33 UTC. Time now 2014-Oct-31 10:50 UTC.
Position N 39°39' W 075°33'.

Length 183 m; draft 9.2 m.

Type: Tanker. MMSI: 338617000.

Date/timePositionNaut miles runAvg speedWind from/ knotsBaromVisibWave heightAir tempDewpointWater temp
2014-Oct-31 10:33N 39°39' W 075°33'1110.8
2014-Oct-31 09:33N 39°48' W 075°25'1 0.0
2014-Oct-30 08:14N 39°49' W 075°24'3 3.7
2014-Oct-30 07:33N 39°47' W 075°27'8 8.5
2014-Oct-30 06:33N 39°40' W 075°32'1111.0
2014-Oct-30 05:33N 39°29' W 075°34'1212.2
2014-Oct-30 04:33N 39°19' W 075°24'28 1.0
2014-Oct-29 00:05N 38°54' W 075°07'0 0.3
2014-Oct-28 23:32N 38°54' W 075°07'0 0.0
2014-Oct-28 22:29N 38°54' W 075°07'0 0.0
2014-Oct-28 21:29N 38°54' W 075°07'0 0.0
2014-Oct-28 10:20N 38°54' W 075°07'0 0.0
2014-Oct-28 09:32N 38°54' W 075°07'0 0.0
2014-Oct-28 08:32N 38°54' W 075°07'0 0.0
2014-Oct-28 07:29N 38°54' W 075°07'0 0.1
2014-Oct-28 06:32N 38°54' W 075°07'0 0.1
2014-Oct-28 05:29N 38°54' W 075°07'  
2014-Oct-23 09:33N 26°39' W 079°45'1918.6
2014-Oct-23 08:33N 26°20' W 079°46'1919.1
2014-Oct-23 07:33N 26°01' W 079°49'1919.1
2014-Oct-23 06:33N 25°42' W 079°52'  

Dump ship's entire track history